Wallace, Canada
Current Conditions -  °F | °C
As of 7:00 PM on Wednesday 26 Nov 2014 (Local Time) from CYYG Reporting Station
Light Snow Light Snow  
Wind Chill: 34°   Ceiling: 1900
Heat Index: 34°   Visibility: 4mi
Dew Point: 32°   Wind: 3mph
Humidity: 93%   Direction: 350°N
Pressure: 30.21"   Gusts: NA
Location:  45.8°N, 63.47°W
Report Text: CYYG 262300Z 35003KT 4SM -SN OVC019 01/M00 A3021 RMK SN5NS3 SN WET SLP233
Loading
Personal Weather Stations






























Interactive Weather Map New forecast layout! Learn more

10-Day Weather Forecast

Advertisements
Track Severe Weather on mobile